Time;durP1;ratioP1;P1;durP2;ratioP2;P2;SDS_P1;SDS_P2;PMS_P1;PMS_P2;Temp;Humidity;BMP_temperature;BMP_pressure;BME280_temperature;BME280_humidity;BME280_pressure;Samples;Min_cycle;Max_cycle;Signal;HPM_P1;HPM_P2
2021/10/05 00:02:20;;;;;;;;;;;12.50;99.90;;;;;;4972628;28;20367;-77
2021/10/05 00:04:47;;;;;;;;;;;12.50;99.90;;;;;;4981177;28;19930;-77
2021/10/05 00:07:14;;;;;;;;;;;12.50;99.90;;;;;;4990675;28;20352;-77
2021/10/05 00:09:40;;;;;;;;;;;12.60;99.90;;;;;;4975348;28;20000;-76
2021/10/05 00:12:08;;;;;;;;;;;12.60;99.90;;;;;;4983349;28;19926;-77
2021/10/05 00:14:36;;;;;;;;;;;12.60;99.90;;;;;;4974451;28;19941;-77
2021/10/05 00:17:03;;;;;;;;;;;12.70;99.90;;;;;;4985000;28;19925;-77
2021/10/05 00:19:30;;;;;;;;;;;12.70;99.90;;;;;;4974168;28;19925;-78
2021/10/05 00:21:56;;;;;;;;;;;12.70;99.90;;;;;;4974783;28;19927;-78
2021/10/05 00:24:23;;;;;;;;;;;12.70;99.90;;;;;;4974553;28;19932;-77
2021/10/05 00:26:50;;;;;;;;;;;12.70;99.90;;;;;;4977046;28;19926;-77
2021/10/05 00:29:16;;;;;;;;;;;12.70;99.90;;;;;;4971330;28;19934;-76
2021/10/05 00:31:44;;;;;;;;;;;12.80;99.90;;;;;;4973522;28;19938;-76
2021/10/05 00:34:11;;;;;;;;;;;12.70;99.90;;;;;;4970313;28;19926;-76
2021/10/05 00:36:38;;;;;;;;;;;12.60;99.90;;;;;;4980420;28;19961;-76
2021/10/05 00:39:04;;;;;;;;;;;12.70;99.90;;;;;;4976604;28;20429;-76
2021/10/05 00:41:31;;;;;;;;;;;12.70;99.90;;;;;;4977280;28;19926;-77
2021/10/05 00:43:59;;;;;;;;;;;12.60;99.90;;;;;;4975010;28;19925;-77
2021/10/05 00:46:26;;;;;;;;;;;12.60;99.90;;;;;;4973982;28;19932;-77
2021/10/05 00:48:54;;;;;;;;;;;12.50;99.90;;;;;;4987566;28;19925;-77
2021/10/05 00:51:21;;;;;;;;;;;12.50;99.90;;;;;;4974022;28;19927;-77
2021/10/05 00:53:47;;;;;;;;;;;12.40;99.90;;;;;;4975030;28;19930;-77
2021/10/05 00:56:14;;;;;;;;;;;12.40;99.90;;;;;;4991518;28;19932;-77
2021/10/05 00:58:41;;;;;;;;;;;12.40;99.90;;;;;;4984663;28;19934;-77
2021/10/05 01:01:07;;;;;;;;;;;12.40;99.90;;;;;;4978449;28;19932;-77
2021/10/05 01:03:34;;;;;;;;;;;12.40;99.90;;;;;;4972598;28;19927;-78
2021/10/05 01:06:02;;;;;;;;;;;12.30;99.90;;;;;;4972100;28;19933;-78
2021/10/05 01:08:31;;;;;;;;;;;12.40;99.90;;;;;;4980403;28;19933;-78
2021/10/05 01:10:57;;;;;;;;;;;12.40;99.90;;;;;;4977296;28;20387;-80
2021/10/05 01:13:24;;;;;;;;;;;12.40;99.90;;;;;;4982290;28;19932;-77
2021/10/05 01:15:50;;;;;;;;;;;12.30;99.90;;;;;;4974636;28;19926;-76
2021/10/05 01:18:17;;;;;;;;;;;12.40;99.90;;;;;;4982740;28;20013;-77
2021/10/05 01:20:59;;;;;;;;;;;12.40;99.90;;;;;;4975858;28;19992;-76
2021/10/05 01:23:27;;;;;;;;;;;12.40;99.90;;;;;;4978449;28;19926;-77
2021/10/05 01:25:54;;;;;;;;;;;12.30;99.90;;;;;;4973402;28;20092;-77
2021/10/05 01:28:21;;;;;;;;;;;12.30;99.90;;;;;;4980194;28;19926;-77
2021/10/05 01:30:48;;;;;;;;;;;12.30;99.90;;;;;;4986400;28;20373;-78
2021/10/05 01:33:15;;;;;;;;;;;12.30;99.90;;;;;;4979332;28;20008;-76
2021/10/05 01:35:42;;;;;;;;;;;12.30;99.90;;;;;;4982355;28;19926;-77
2021/10/05 01:38:10;;;;;;;;;;;12.20;99.90;;;;;;4984047;28;19932;-77
2021/10/05 01:40:37;;;;;;;;;;;12.20;99.90;;;;;;4972628;28;20288;-77
2021/10/05 01:43:04;;;;;;;;;;;12.20;99.90;;;;;;4989523;28;20466;-78
2021/10/05 01:45:31;;;;;;;;;;;12.20;99.90;;;;;;4977292;28;20324;-77
2021/10/05 01:47:57;;;;;;;;;;;12.20;99.90;;;;;;4984351;28;19929;-76
2021/10/05 01:50:27;;;;;;;;;;;12.20;99.90;;;;;;4984129;28;19930;-76
2021/10/05 01:52:53;;;;;;;;;;;12.20;99.90;;;;;;4972374;28;20025;-76
2021/10/05 01:55:22;;;;;;;;;;;12.20;99.90;;;;;;4985308;28;20368;-77
2021/10/05 01:57:49;;;;;;;;;;;12.10;99.90;;;;;;4978216;28;19926;-76
2021/10/05 02:00:15;;;;;;;;;;;12.10;99.90;;;;;;4975440;28;19940;-77
2021/10/05 02:02:42;;;;;;;;;;;12.10;99.90;;;;;;4986200;28;19925;-76
2021/10/05 02:05:09;;;;;;;;;;;12.10;99.90;;;;;;4972295;28;19926;-76
2021/10/05 02:07:36;;;;;;;;;;;12.10;99.90;;;;;;4973131;28;19926;-76
2021/10/05 02:10:03;;;;;;;;;;;12.10;99.90;;;;;;4971550;28;19926;-76
2021/10/05 02:12:31;;;;;;;;;;;12.00;99.90;;;;;;4973281;28;19926;-76
2021/10/05 02:14:58;;;;;;;;;;;12.00;99.90;;;;;;4973865;28;23226;-75
2021/10/05 02:17:24;;;;;;;;;;;12.00;99.90;;;;;;4971626;28;20795;-76
2021/10/05 02:19:51;;;;;;;;;;;12.00;99.90;;;;;;4976445;28;19936;-76
2021/10/05 02:22:18;;;;;;;;;;;12.00;99.90;;;;;;4984398;28;19926;-76
2021/10/05 02:24:45;;;;;;;;;;;12.00;99.90;;;;;;4973232;28;19937;-76
2021/10/05 02:27:12;;;;;;;;;;;11.90;99.90;;;;;;4971030;28;19926;-77
2021/10/05 02:29:41;;;;;;;;;;;11.90;99.90;;;;;;4972369;28;19934;-76
2021/10/05 02:32:09;;;;;;;;;;;11.90;99.90;;;;;;4970330;28;19933;-77
2021/10/05 02:34:36;;;;;;;;;;;11.80;99.90;;;;;;4973646;28;19926;-77
2021/10/05 02:37:03;;;;;;;;;;;11.80;99.90;;;;;;4978661;28;19926;-76
2021/10/05 02:39:30;;;;;;;;;;;11.80;99.90;;;;;;4972940;28;19930;-76
2021/10/05 02:41:56;;;;;;;;;;;11.80;99.90;;;;;;4970803;28;19927;-77
2021/10/05 02:44:23;;;;;;;;;;;11.80;99.90;;;;;;4973675;28;19933;-76
2021/10/05 02:46:51;;;;;;;;;;;11.80;99.90;;;;;;4989584;28;19925;-77
2021/10/05 02:49:18;;;;;;;;;;;11.80;99.90;;;;;;4981789;28;19926;-76
2021/10/05 02:51:45;;;;;;;;;;;11.70;99.90;;;;;;4970157;28;19926;-77
2021/10/05 02:54:12;;;;;;;;;;;11.70;99.90;;;;;;4984311;28;19933;-76
2021/10/05 02:56:38;;;;;;;;;;;11.70;99.90;;;;;;4974420;28;19926;-77
2021/10/05 02:59:05;;;;;;;;;;;11.70;99.90;;;;;;4977682;28;19936;-77
2021/10/05 03:01:32;;;;;;;;;;;11.80;99.90;;;;;;4988512;28;19926;-78
2021/10/05 03:04:00;;;;;;;;;;;11.70;99.90;;;;;;4977704;28;19926;-77
2021/10/05 03:06:26;;;;;;;;;;;11.70;99.90;;;;;;4987194;28;19926;-77
2021/10/05 03:08:55;;;;;;;;;;;11.70;99.90;;;;;;4979165;28;19980;-76
2021/10/05 03:11:21;;;;;;;;;;;11.80;99.90;;;;;;4984698;28;19930;-76
2021/10/05 03:13:48;;;;;;;;;;;11.80;99.90;;;;;;4984570;28;19933;-76
2021/10/05 03:16:15;;;;;;;;;;;11.70;99.90;;;;;;4981638;28;19926;-77
2021/10/05 03:18:42;;;;;;;;;;;11.70;99.90;;;;;;4980867;28;19930;-76
2021/10/05 03:21:10;;;;;;;;;;;11.80;99.90;;;;;;4980441;28;20261;-76
2021/10/05 03:23:36;;;;;;;;;;;11.80;99.90;;;;;;4977509;28;19936;-76
2021/10/05 03:26:04;;;;;;;;;;;11.80;99.90;;;;;;4990720;28;19961;-77
2021/10/05 03:28:31;;;;;;;;;;;11.80;99.90;;;;;;4987479;28;20025;-77
2021/10/05 03:30:58;;;;;;;;;;;11.80;99.90;;;;;;4974431;28;19926;-76
2021/10/05 03:33:25;;;;;;;;;;;11.80;99.90;;;;;;4976088;28;19926;-74
2021/10/05 03:35:52;;;;;;;;;;;11.80;99.90;;;;;;4975488;28;19926;-74
2021/10/05 03:38:20;;;;;;;;;;;11.80;99.90;;;;;;4975327;28;19926;-74
2021/10/05 03:40:48;;;;;;;;;;;11.80;99.90;;;;;;4974423;28;19945;-74
2021/10/05 03:43:14;;;;;;;;;;;11.80;99.90;;;;;;4973933;28;19969;-74
2021/10/05 03:45:41;;;;;;;;;;;11.80;99.90;;;;;;4987570;28;19971;-74
2021/10/05 03:48:08;;;;;;;;;;;11.80;99.90;;;;;;4980983;28;19926;-74
2021/10/05 03:50:34;;;;;;;;;;;11.80;99.90;;;;;;4988767;28;19948;-74
2021/10/05 03:53:01;;;;;;;;;;;11.80;99.90;;;;;;4981201;28;19927;-74
2021/10/05 03:55:29;;;;;;;;;;;11.80;99.90;;;;;;4988443;28;19926;-74
2021/10/05 03:57:56;;;;;;;;;;;11.80;99.90;;;;;;4989803;28;19925;-75
2021/10/05 04:00:22;;;;;;;;;;;11.80;99.90;;;;;;4983626;28;20020;-74
2021/10/05 04:02:49;;;;;;;;;;;11.80;99.90;;;;;;4973937;28;19926;-75
2021/10/05 04:05:15;;;;;;;;;;;11.80;99.90;;;;;;4978277;28;19926;-74
2021/10/05 04:07:42;;;;;;;;;;;11.80;99.90;;;;;;4984851;28;19926;-74
2021/10/05 04:10:09;;;;;;;;;;;11.80;99.90;;;;;;4977142;28;19934;-75
2021/10/05 04:12:37;;;;;;;;;;;11.80;99.90;;;;;;4977101;28;19926;-74
2021/10/05 04:15:04;;;;;;;;;;;11.80;99.90;;;;;;4972733;28;19926;-74
2021/10/05 04:17:30;;;;;;;;;;;11.80;99.90;;;;;;4979114;28;19926;-75
2021/10/05 04:19:57;;;;;;;;;;;11.80;99.90;;;;;;4984322;28;19944;-74
2021/10/05 04:22:24;;;;;;;;;;;11.80;99.90;;;;;;4991299;28;19930;-75
2021/10/05 04:24:50;;;;;;;;;;;11.90;99.90;;;;;;4988661;28;20014;-74
2021/10/05 04:27:17;;;;;;;;;;;11.90;99.90;;;;;;4974269;28;19948;-74
2021/10/05 04:29:45;;;;;;;;;;;11.90;99.90;;;;;;4974383;28;19940;-74
2021/10/05 04:32:12;;;;;;;;;;;11.90;99.90;;;;;;4976188;28;19926;-74
2021/10/05 04:34:39;;;;;;;;;;;11.80;99.90;;;;;;4981779;28;19926;-75
2021/10/05 04:37:06;;;;;;;;;;;11.90;99.90;;;;;;4973412;28;19933;-75
2021/10/05 04:39:33;;;;;;;;;;;11.90;99.90;;;;;;4971959;28;19949;-74
2021/10/05 04:42:00;;;;;;;;;;;11.90;99.90;;;;;;4971873;28;19926;-74
2021/10/05 04:44:26;;;;;;;;;;;12.00;99.90;;;;;;4980864;28;19936;-74
2021/10/05 04:46:54;;;;;;;;;;;12.00;99.90;;;;;;4975910;28;20360;-74
2021/10/05 04:49:21;;;;;;;;;;;11.90;99.90;;;;;;4978377;28;20300;-74
2021/10/05 04:51:48;;;;;;;;;;;12.00;99.90;;;;;;4979273;28;20273;-73
2021/10/05 04:54:14;;;;;;;;;;;12.00;99.90;;;;;;4978130;28;20483;-74
2021/10/05 04:56:41;;;;;;;;;;;12.00;99.90;;;;;;4972848;28;20024;-74
2021/10/05 04:59:08;;;;;;;;;;;12.00;99.90;;;;;;4975455;28;19926;-73
2021/10/05 05:01:34;;;;;;;;;;;12.00;99.90;;;;;;4978073;28;20459;-74
2021/10/05 05:04:03;;;;;;;;;;;12.00;99.90;;;;;;4971692;28;19930;-73
2021/10/05 05:06:29;;;;;;;;;;;12.00;99.90;;;;;;4973878;28;19926;-74
2021/10/05 05:08:56;;;;;;;;;;;12.00;99.90;;;;;;4982951;28;19926;-73
2021/10/05 05:11:23;;;;;;;;;;;12.00;99.90;;;;;;4976860;28;20009;-74
2021/10/05 05:13:49;;;;;;;;;;;11.90;99.90;;;;;;4974730;28;19930;-73
2021/10/05 05:16:16;;;;;;;;;;;12.00;99.90;;;;;;4983751;28;19926;-73
2021/10/05 05:18:43;;;;;;;;;;;12.00;99.90;;;;;;4984889;28;20010;-73
2021/10/05 05:21:11;;;;;;;;;;;12.00;99.90;;;;;;4977627;28;20337;-73
2021/10/05 05:23:37;;;;;;;;;;;11.90;99.90;;;;;;4974695;28;19926;-73
2021/10/05 05:26:04;;;;;;;;;;;12.00;99.90;;;;;;4973154;28;19930;-74
2021/10/05 05:28:31;;;;;;;;;;;12.00;99.90;;;;;;4977568;28;19926;-73
2021/10/05 05:30:57;;;;;;;;;;;12.00;99.90;;;;;;4980419;28;19926;-74
2021/10/05 05:33:24;;;;;;;;;;;12.00;99.90;;;;;;4989795;28;20396;-74
2021/10/05 05:35:51;;;;;;;;;;;11.90;99.90;;;;;;4979393;28;20396;-74
2021/10/05 05:38:21;;;;;;;;;;;11.90;99.90;;;;;;4969651;28;19926;-74
2021/10/05 05:40:48;;;;;;;;;;;11.90;99.90;;;;;;4971673;28;20362;-74
2021/10/05 05:43:15;;;;;;;;;;;11.80;99.90;;;;;;4971445;28;19934;-74
2021/10/05 05:45:41;;;;;;;;;;;11.80;99.90;;;;;;4969929;28;19933;-74
2021/10/05 05:48:08;;;;;;;;;;;11.80;99.90;;;;;;4970827;28;19927;-74
2021/10/05 05:50:35;;;;;;;;;;;11.90;99.90;;;;;;4970205;28;19959;-73
2021/10/05 05:53:01;;;;;;;;;;;11.90;99.90;;;;;;4974017;28;20025;-74
2021/10/05 05:55:29;;;;;;;;;;;11.90;99.90;;;;;;4981380;28;19926;-75
2021/10/05 05:57:56;;;;;;;;;;;11.90;99.90;;;;;;4970463;28;20325;-74
2021/10/05 06:00:22;;;;;;;;;;;11.90;99.90;;;;;;4972826;28;20388;-75
2021/10/05 06:02:49;;;;;;;;;;;11.90;99.90;;;;;;4973739;28;19934;-74
2021/10/05 06:05:16;;;;;;;;;;;11.90;99.90;;;;;;4972034;28;20402;-75
2021/10/05 06:07:42;;;;;;;;;;;11.90;99.90;;;;;;4982846;28;19926;-74
2021/10/05 06:10:10;;;;;;;;;;;11.90;99.90;;;;;;4970181;28;20703;-74
2021/10/05 06:12:39;;;;;;;;;;;11.90;99.90;;;;;;4980117;28;19949;-75
2021/10/05 06:15:06;;;;;;;;;;;11.90;99.90;;;;;;4973760;28;19926;-74
2021/10/05 06:17:33;;;;;;;;;;;11.90;99.90;;;;;;4973497;28;19926;-75
2021/10/05 06:19:59;;;;;;;;;;;11.90;99.90;;;;;;4975876;28;19926;-74
2021/10/05 06:22:26;;;;;;;;;;;11.90;99.90;;;;;;4978680;28;19926;-75
2021/10/05 06:24:53;;;;;;;;;;;11.90;99.90;;;;;;4974100;28;20016;-75
2021/10/05 06:27:19;;;;;;;;;;;11.90;99.90;;;;;;4972068;28;20024;-74
2021/10/05 06:29:47;;;;;;;;;;;11.90;99.90;;;;;;4971249;28;20411;-75
2021/10/05 06:32:14;;;;;;;;;;;11.90;99.90;;;;;;4977730;28;19926;-74
2021/10/05 06:34:41;;;;;;;;;;;12.00;99.90;;;;;;4982161;28;20025;-74
2021/10/05 06:37:07;;;;;;;;;;;12.10;99.90;;;;;;4977164;28;19929;-75
2021/10/05 06:39:34;;;;;;;;;;;12.00;99.90;;;;;;4973642;28;19980;-74
2021/10/05 06:42:01;;;;;;;;;;;12.10;99.90;;;;;;4982295;28;19965;-73
2021/10/05 06:44:27;;;;;;;;;;;12.10;99.90;;;;;;4983390;28;19944;-76
2021/10/05 06:46:55;;;;;;;;;;;12.10;99.90;;;;;;4981166;28;19979;-75
2021/10/05 06:49:22;;;;;;;;;;;12.20;99.90;;;;;;4983908;28;19932;-75
2021/10/05 06:51:49;;;;;;;;;;;12.20;99.90;;;;;;4982851;28;19926;-75
2021/10/05 06:54:15;;;;;;;;;;;12.20;99.90;;;;;;4985037;28;20360;-75
2021/10/05 06:56:42;;;;;;;;;;;12.30;99.90;;;;;;4985146;28;19926;-75
2021/10/05 06:59:08;;;;;;;;;;;12.40;99.90;;;;;;4980525;28;19926;-76
2021/10/05 07:01:35;;;;;;;;;;;12.40;99.90;;;;;;4979128;28;19933;-74
2021/10/05 07:04:03;;;;;;;;;;;12.40;99.90;;;;;;4986185;28;20008;-77
2021/10/05 07:06:30;;;;;;;;;;;12.50;99.90;;;;;;4976968;28;19926;-75
2021/10/05 07:08:57;;;;;;;;;;;12.50;99.90;;;;;;4974679;28;20049;-76
2021/10/05 07:11:24;;;;;;;;;;;12.50;99.90;;;;;;4973727;28;20395;-75
2021/10/05 07:13:51;;;;;;;;;;;12.60;99.90;;;;;;4977564;28;19965;-76
2021/10/05 07:16:17;;;;;;;;;;;12.70;99.90;;;;;;4973119;28;19930;-76
2021/10/05 07:18:44;;;;;;;;;;;12.70;99.90;;;;;;4975069;28;20119;-75
2021/10/05 07:21:12;;;;;;;;;;;12.80;99.90;;;;;;4978345;28;20005;-76
2021/10/05 07:23:39;;;;;;;;;;;12.90;99.90;;;;;;4979931;28;19928;-76
2021/10/05 07:26:05;;;;;;;;;;;13.00;99.90;;;;;;4982140;28;19930;-75
2021/10/05 07:28:32;;;;;;;;;;;13.20;99.90;;;;;;4978945;28;19932;-75
2021/10/05 07:30:59;;;;;;;;;;;13.30;99.90;;;;;;4977653;28;19984;-77
2021/10/05 07:33:27;;;;;;;;;;;13.50;99.90;;;;;;4985818;28;19926;-76
2021/10/05 07:35:54;;;;;;;;;;;13.60;99.90;;;;;;4978458;28;19926;-77
2021/10/05 07:38:22;;;;;;;;;;;14.10;99.90;;;;;;4984031;28;19933;-75
2021/10/05 07:40:49;;;;;;;;;;;15.90;99.90;;;;;;4980253;28;19925;-76
2021/10/05 07:43:16;;;;;;;;;;;16.80;99.90;;;;;;4985892;28;19926;-76
2021/10/05 07:45:42;;;;;;;;;;;15.50;99.90;;;;;;4987605;28;19926;-77
2021/10/05 07:48:09;;;;;;;;;;;15.00;99.90;;;;;;4989645;28;19987;-76
2021/10/05 07:50:36;;;;;;;;;;;14.60;99.90;;;;;;4981041;28;20012;-76
2021/10/05 07:53:03;;;;;;;;;;;14.30;99.90;;;;;;4980131;28;19926;-76
2021/10/05 07:55:32;;;;;;;;;;;14.20;99.90;;;;;;4987613;28;19942;-74
2021/10/05 07:57:59;;;;;;;;;;;14.20;99.90;;;;;;4980739;28;19956;-77
2021/10/05 08:00:26;;;;;;;;;;;14.20;99.90;;;;;;4988515;28;19932;-76
2021/10/05 08:02:53;;;;;;;;;;;14.20;99.90;;;;;;4976408;28;20009;-75
2021/10/05 08:05:20;;;;;;;;;;;14.20;99.90;;;;;;4978349;28;19930;-77
2021/10/05 08:07:47;;;;;;;;;;;14.20;99.90;;;;;;4983761;28;19932;-74
2021/10/05 08:10:14;;;;;;;;;;;14.20;99.90;;;;;;4981346;28;19926;-76
2021/10/05 08:12:43;;;;;;;;;;;14.20;99.90;;;;;;4977676;28;19926;-77
2021/10/05 08:15:09;;;;;;;;;;;14.20;99.90;;;;;;4976495;28;19932;-77
2021/10/05 08:17:36;;;;;;;;;;;14.20;99.90;;;;;;4978432;28;19932;-77
2021/10/05 08:20:03;;;;;;;;;;;14.30;99.90;;;;;;4978935;28;19925;-78
2021/10/05 08:22:30;;;;;;;;;;;14.30;99.90;;;;;;4980047;28;20417;-76
2021/10/05 08:24:57;;;;;;;;;;;14.40;99.90;;;;;;4982072;28;20399;-76
2021/10/05 08:27:23;;;;;;;;;;;14.50;99.90;;;;;;4971181;28;20453;-77
2021/10/05 08:29:52;;;;;;;;;;;14.50;99.90;;;;;;4988434;28;19926;-75
2021/10/05 08:32:19;;;;;;;;;;;14.50;99.90;;;;;;4979616;28;19926;-74
2021/10/05 08:34:46;;;;;;;;;;;14.60;99.90;;;;;;4975190;28;20033;-74
2021/10/05 08:37:13;;;;;;;;;;;14.60;99.90;;;;;;4972030;28;20308;-75
2021/10/05 08:39:39;;;;;;;;;;;14.60;99.90;;;;;;4976869;28;22608;-74
2021/10/05 08:42:06;;;;;;;;;;;14.60;99.90;;;;;;4985913;28;19932;-74
2021/10/05 08:44:34;;;;;;;;;;;14.60;99.90;;;;;;4975723;28;19926;-75
2021/10/05 08:47:03;;;;;;;;;;;14.70;99.90;;;;;;4976977;28;20021;-75
2021/10/05 08:49:30;;;;;;;;;;;14.80;99.90;;;;;;4986142;28;19976;-75
2021/10/05 08:51:57;;;;;;;;;;;15.00;99.90;;;;;;4983192;28;19926;-74
2021/10/05 08:54:24;;;;;;;;;;;15.10;99.90;;;;;;4986539;28;19926;-74
2021/10/05 08:56:51;;;;;;;;;;;15.10;99.90;;;;;;4987870;28;19926;-75
2021/10/05 08:59:17;;;;;;;;;;;15.20;99.90;;;;;;4988042;28;19926;-76
2021/10/05 09:01:44;;;;;;;;;;;15.30;99.90;;;;;;4982407;28;19932;-76
2021/10/05 09:04:12;;;;;;;;;;;15.40;99.90;;;;;;4985416;28;19926;-75
2021/10/05 09:06:40;;;;;;;;;;;15.40;99.90;;;;;;4986626;28;19956;-74
2021/10/05 09:09:07;;;;;;;;;;;15.50;99.90;;;;;;4984502;28;19930;-75
2021/10/05 09:11:38;;;;;;;;;;;15.50;99.90;;;;;;4984237;28;20097;-76
2021/10/05 09:14:04;;;;;;;;;;;15.50;99.90;;;;;;4978889;28;19926;-75
2021/10/05 09:16:32;;;;;;;;;;;15.60;99.90;;;;;;4984801;28;19932;-76
2021/10/05 09:19:00;;;;;;;;;;;15.60;99.90;;;;;;4983071;28;19926;-75
2021/10/05 09:21:29;;;;;;;;;;;15.70;99.90;;;;;;4978575;28;20396;-74
2021/10/05 09:23:57;;;;;;;;;;;15.90;99.90;;;;;;4979315;28;20397;-77
2021/10/05 09:26:51;;;;;;;;;;;15.90;99.90;;;;;;4984543;28;19926;-77
2021/10/05 09:29:19;;;;;;;;;;;15.80;99.90;;;;;;4999362;28;19926;-77
2021/10/05 09:31:56;;;;;;;;;;;15.70;99.90;;;;;;4984008;28;20312;-76
2021/10/05 09:34:38;;;;;;;;;;;15.70;99.90;;;;;;4981296;28;20391;-75
2021/10/05 09:37:07;;;;;;;;;;;15.60;99.90;;;;;;4987688;28;20068;-74
2021/10/05 09:39:38;;;;;;;;;;;15.60;99.90;;;;;;4973856;28;19993;-75
2021/10/05 09:42:05;;;;;;;;;;;15.50;99.90;;;;;;4987398;28;20012;-75
2021/10/05 09:44:33;;;;;;;;;;;15.40;99.90;;;;;;4982567;28;20221;-75
2021/10/05 09:47:00;;;;;;;;;;;15.20;99.90;;;;;;4983551;28;19936;-75
2021/10/05 09:49:27;;;;;;;;;;;15.00;99.90;;;;;;4984832;28;19989;-76
2021/10/05 09:51:56;;;;;;;;;;;15.00;99.90;;;;;;4982859;28;19926;-76
2021/10/05 09:54:25;;;;;;;;;;;14.80;99.90;;;;;;4982301;28;19926;-73
2021/10/05 09:56:53;;;;;;;;;;;14.70;99.90;;;;;;4983507;28;19926;-73
2021/10/05 09:59:19;;;;;;;;;;;14.70;99.90;;;;;;4984711;28;19990;-72
2021/10/05 10:01:46;;;;;;;;;;;14.70;99.90;;;;;;4981948;28;19926;-77
2021/10/05 10:04:14;;;;;;;;;;;14.60;99.90;;;;;;4984620;28;19933;-74
2021/10/05 10:06:41;;;;;;;;;;;14.60;99.90;;;;;;4986187;28;19936;-74
2021/10/05 10:09:08;;;;;;;;;;;14.40;99.90;;;;;;4984627;28;19930;-75
2021/10/05 10:11:36;;;;;;;;;;;14.20;99.90;;;;;;4982008;28;19930;-77
2021/10/05 10:14:03;;;;;;;;;;;14.20;99.90;;;;;;4999285;22;20914;-75
2021/10/05 10:16:33;;;;;;;;;;;14.20;99.90;;;;;;4991058;28;19965;-76
2021/10/05 10:19:02;;;;;;;;;;;14.10;99.90;;;;;;4987515;28;20295;-76
2021/10/05 10:21:30;;;;;;;;;;;14.10;99.90;;;;;;4980422;28;19949;-75
2021/10/05 10:24:14;;;;;;;;;;;14.10;99.90;;;;;;4986128;28;20397;-73
2021/10/05 10:26:45;;;;;;;;;;;14.10;99.90;;;;;;4987099;28;19945;-74
2021/10/05 10:29:13;;;;;;;;;;;14.20;99.90;;;;;;4990605;28;19927;-73
2021/10/05 10:31:40;;;;;;;;;;;14.10;99.90;;;;;;4973333;28;20807;-74
2021/10/05 10:34:08;;;;;;;;;;;14.10;99.90;;;;;;4975999;28;19926;-74
2021/10/05 10:36:39;;;;;;;;;;;14.20;99.90;;;;;;4976183;28;19967;-73
2021/10/05 10:39:07;;;;;;;;;;;14.20;99.90;;;;;;4977632;28;20410;-73
2021/10/05 10:41:33;;;;;;;;;;;14.20;99.90;;;;;;4976816;28;20021;-73
2021/10/05 10:44:04;;;;;;;;;;;14.20;99.90;;;;;;4976720;28;19934;-74
2021/10/05 10:46:31;;;;;;;;;;;14.20;99.90;;;;;;4975954;28;20012;-75
2021/10/05 10:49:00;;;;;;;;;;;14.20;99.90;;;;;;4987699;28;20370;-75
2021/10/05 10:51:28;;;;;;;;;;;14.10;99.90;;;;;;4992005;28;19933;-75
2021/10/05 10:53:55;;;;;;;;;;;14.10;99.90;;;;;;4989963;28;19933;-74
2021/10/05 10:56:29;;;;;;;;;;;14.00;99.90;;;;;;4984008;28;19926;-74
2021/10/05 10:58:58;;;;;;;;;;;13.90;99.90;;;;;;4980823;28;19942;-74
2021/10/05 11:01:36;;;;;;;;;;;13.80;99.90;;;;;;5090755;22;19925;-75
2021/10/05 11:04:03;;;;;;;;;;;13.80;99.90;;;;;;5062315;28;20306;-75
2021/10/05 11:06:30;;;;;;;;;;;13.80;99.90;;;;;;5060377;28;19932;-76
2021/10/05 11:08:57;;;;;;;;;;;13.70;99.90;;;;;;5054052;28;19925;-76
2021/10/05 11:11:31;;;;;;;;;;;13.70;99.90;;;;;;5057694;28;20011;-76
2021/10/05 11:14:01;;;;;;;;;;;13.70;99.90;;;;;;5055921;28;19983;-76
2021/10/05 11:16:28;;;;;;;;;;;13.80;99.90;;;;;;5062577;28;20410;-76
2021/10/05 11:19:03;;;;;;;;;;;13.80;99.90;;;;;;5067230;28;20003;-76
2021/10/05 11:21:31;;;;;;;;;;;13.80;99.90;;;;;;5068798;28;19935;-76
2021/10/05 11:23:57;;;;;;;;;;;13.80;99.90;;;;;;5063157;28;19931;-76
2021/10/05 11:26:30;;;;;;;;;;;13.80;99.90;;;;;;5063859;28;19935;-76
2021/10/05 11:28:57;;;;;;;;;;;13.90;99.90;;;;;;5066041;28;20344;-76
2021/10/05 11:31:24;;;;;;;;;;;13.90;99.90;;;;;;5061547;28;19935;-75
2021/10/05 11:33:50;;;;;;;;;;;14.00;99.90;;;;;;5065630;28;19931;-75
2021/10/05 11:36:21;;;;;;;;;;;13.90;99.90;;;;;;5060292;28;19925;-76
2021/10/05 11:38:48;;;;;;;;;;;13.90;99.90;;;;;;5060710;28;20016;-75
2021/10/05 11:41:15;;;;;;;;;;;14.00;99.90;;;;;;5060638;28;19935;-76
2021/10/05 11:43:43;;;;;;;;;;;14.00;99.90;;;;;;5064593;28;20418;-75
2021/10/05 11:46:12;;;;;;;;;;;14.00;99.90;;;;;;5062534;28;20060;-75
2021/10/05 11:48:39;;;;;;;;;;;14.00;99.90;;;;;;5064960;28;19932;-76
2021/10/05 11:51:06;;;;;;;;;;;14.00;99.90;;;;;;5062187;28;20007;-76
2021/10/05 11:53:35;;;;;;;;;;;14.00;99.90;;;;;;5065469;28;20019;-76
2021/10/05 11:56:05;;;;;;;;;;;14.00;99.90;;;;;;5066354;28;19924;-75
2021/10/05 11:58:40;;;;;;;;;;;14.00;99.90;;;;;;5068668;28;19931;-76
2021/10/05 12:01:12;;;;;;;;;;;14.00;99.90;;;;;;5053560;28;19925;-75
2021/10/05 12:03:39;;;;;;;;;;;14.00;99.90;;;;;;5066129;28;19933;-76
2021/10/05 12:06:06;;;;;;;;;;;14.00;99.90;;;;;;5068888;28;19931;-76
2021/10/05 12:08:32;;;;;;;;;;;14.00;99.90;;;;;;5064466;28;20280;-75
2021/10/05 12:11:00;;;;;;;;;;;13.90;99.90;;;;;;5058481;28;19925;-76
2021/10/05 12:13:27;;;;;;;;;;;14.00;99.90;;;;;;5065327;28;19932;-76
2021/10/05 12:15:54;;;;;;;;;;;14.00;99.90;;;;;;5062041;28;19925;-77
2021/10/05 12:18:20;;;;;;;;;;;13.90;99.90;;;;;;5056717;28;19925;-76
2021/10/05 12:21:00;;;;;;;;;;;13.90;99.90;;;;;;5063514;28;20186;-76
2021/10/05 12:23:26;;;;;;;;;;;13.90;99.90;;;;;;5054592;28;19932;-76
2021/10/05 12:25:53;;;;;;;;;;;13.90;99.90;;;;;;5068306;28;19924;-75
2021/10/05 12:28:21;;;;;;;;;;;13.80;99.90;;;;;;5069668;28;20251;-76
2021/10/05 12:30:48;;;;;;;;;;;13.70;99.90;;;;;;5058567;28;20294;-76
2021/10/05 12:33:16;;;;;;;;;;;13.70;99.90;;;;;;5062001;28;20040;-75
2021/10/05 12:35:44;;;;;;;;;;;13.80;99.90;;;;;;5059645;28;19933;-75
2021/10/05 12:38:12;;;;;;;;;;;13.90;99.90;;;;;;5056016;28;19924;-75
2021/10/05 12:40:39;;;;;;;;;;;14.00;99.90;;;;;;5058559;28;19971;-74
2021/10/05 12:43:06;;;;;;;;;;;14.10;99.90;;;;;;5061017;28;19924;-75
2021/10/05 12:45:34;;;;;;;;;;;14.20;99.90;;;;;;5068635;28;20007;-75
2021/10/05 12:48:01;;;;;;;;;;;14.20;99.90;;;;;;5057681;28;19947;-75
2021/10/05 12:50:29;;;;;;;;;;;14.40;99.90;;;;;;5052995;28;19925;-76
2021/10/05 12:52:57;;;;;;;;;;;14.50;99.90;;;;;;5055776;28;20379;-74
2021/10/05 12:55:26;;;;;;;;;;;14.60;99.90;;;;;;5063729;28;19931;-75
2021/10/05 12:57:53;;;;;;;;;;;14.70;99.90;;;;;;5053910;28;19933;-75
2021/10/05 13:00:20;;;;;;;;;;;14.90;99.90;;;;;;5055105;28;20014;-75
2021/10/05 13:02:49;;;;;;;;;;;15.00;99.90;;;;;;5053153;28;20011;-75
2021/10/05 13:05:16;;;;;;;;;;;15.30;99.90;;;;;;5067741;28;20037;-74
2021/10/05 13:07:43;;;;;;;;;;;15.50;99.90;;;;;;5050864;28;19931;-74
2021/10/05 13:10:10;;;;;;;;;;;15.60;99.90;;;;;;5071896;28;19932;-75
2021/10/05 13:12:37;;;;;;;;;;;15.60;99.90;;;;;;5053770;28;19947;-74
2021/10/05 13:15:04;;;;;;;;;;;15.60;99.90;;;;;;5061844;28;19950;-75
2021/10/05 13:17:31;;;;;;;;;;;15.60;99.90;;;;;;5053194;28;20387;-75
2021/10/05 13:19:59;;;;;;;;;;;15.60;99.90;;;;;;5059175;28;20141;-75
2021/10/05 13:22:25;;;;;;;;;;;15.60;99.90;;;;;;5061403;28;19925;-75
2021/10/05 13:24:52;;;;;;;;;;;15.70;99.90;;;;;;5058732;28;19928;-75
2021/10/05 13:27:19;;;;;;;;;;;15.60;99.90;;;;;;5060020;28;19931;-75
2021/10/05 13:29:45;;;;;;;;;;;15.50;99.90;;;;;;5069922;28;19924;-75
2021/10/05 13:32:12;;;;;;;;;;;15.40;99.90;;;;;;5059626;28;19925;-74
2021/10/05 13:34:39;;;;;;;;;;;15.30;99.90;;;;;;5053804;28;19991;-74
2021/10/05 13:37:07;;;;;;;;;;;15.30;99.90;;;;;;5058748;28;19947;-74
2021/10/05 13:39:33;;;;;;;;;;;15.30;99.90;;;;;;5059528;28;20013;-74
2021/10/05 13:42:01;;;;;;;;;;;15.50;99.90;;;;;;5062536;28;19925;-74
2021/10/05 13:44:28;;;;;;;;;;;15.80;99.90;;;;;;5062590;28;19924;-74
2021/10/05 13:46:55;;;;;;;;;;;16.10;99.90;;;;;;5066893;28;20047;-75
2021/10/05 13:49:21;;;;;;;;;;;16.20;99.90;;;;;;5051769;28;19924;-74
2021/10/05 13:51:48;;;;;;;;;;;16.30;99.90;;;;;;5059284;28;20402;-74
2021/10/05 13:54:17;;;;;;;;;;;16.30;99.90;;;;;;5059692;28;20397;-74
2021/10/05 13:56:43;;;;;;;;;;;16.20;99.90;;;;;;5057694;28;20028;-75
2021/10/05 13:59:11;;;;;;;;;;;16.00;99.90;;;;;;5053762;28;20358;-74
2021/10/05 14:01:38;;;;;;;;;;;15.90;99.90;;;;;;5059301;28;19978;-75
2021/10/05 14:04:05;;;;;;;;;;;15.80;99.90;;;;;;5057486;28;19925;-76
2021/10/05 14:06:32;;;;;;;;;;;15.70;99.90;;;;;;5053038;28;19924;-75
2021/10/05 14:08:59;;;;;;;;;;;15.60;99.90;;;;;;5052970;28;19928;-76
2021/10/05 14:11:27;;;;;;;;;;;15.60;99.90;;;;;;5055514;28;19931;-75
2021/10/05 14:13:56;;;;;;;;;;;15.60;99.90;;;;;;5058065;28;19925;-75
2021/10/05 14:16:23;;;;;;;;;;;15.60;99.90;;;;;;5061554;28;20385;-75
2021/10/05 14:18:49;;;;;;;;;;;15.50;99.90;;;;;;5051657;28;19932;-75